Terminal Aerodrome Forecast
Issued by NWS Louisville, KY

Home | Current Version | Previous Version | Text Only | Print | Product List | Glossary On
Versions: 1 2 3 4 5 6 7 8 9 10 11 12 13 14
827
FTUS43 KLMK 302320
TAFSDF
TAF
KSDF 302320Z 3100/0106 VRB03KT P6SM SCT250
     FM311600 06005KT P6SM SCT050 BKN200
     FM010000 VRB03KT P6SM BKN200=

USA.gov is the U.S. government's official web portal to all federal, state and local government web resources and services.